ADDS METAR Data INFO
IDs: Format: Raw Decoded Include TAF

Data at: 0318 UTC 20 Jul 2018

KIKW 200315Z AUTO 13007KT 10SM BKN065 22/14 A2994 RMK AO2 T02190144
KIKW 200255Z AUTO 12006KT 10SM BKN065 23/15 A2994 RMK AO2 T02270145
KIKW 200235Z AUTO 15004KT 10SM BKN065 23/15 A2993 RMK AO2 T02310147
KIKW 200215Z AUTO 14003KT 10SM SCT065 20/15 A2993 RMK AO2 T01960148
KIKW 200155Z AUTO 00000KT 10SM SCT065 19/15 A2993 RMK AO2 T01940151
KIKW 200135Z AUTO 13003KT 10SM CLR 24/14 A2993 RMK AO2 T02420142
KIKW 200115Z AUTO 13004KT 10SM CLR 24/14 A2992 RMK AO2 T02440139
KIKW 200055Z AUTO 14004KT 10SM CLR 25/14 A2993 RMK AO2 T02510139
KIKW 200035Z AUTO 15003KT 10SM CLR 25/14 A2993 RMK AO2 T02530141
KIKW 200015Z AUTO 17004KT 10SM CLR 26/14 A2994 RMK AO2 T02610141
KIKW 192355Z AUTO 19004KT 10SM SCT070 26/14 A2994 RMK AO2 T02610140 10283 20261
KIKW 192335Z AUTO 21004KT 10SM CLR 27/14 A2995 RMK AO2 T02710136
KIKW 192315Z AUTO 20007KT 10SM CLR 27/14 A2995 RMK AO2 T02680139
KIKW 192255Z AUTO 19007KT 10SM CLR 26/14 A2995 RMK AO2 T02640138
KIKW 192235Z AUTO 17009KT 10SM SCT070 28/14 A2996 RMK AO2 T02750136
KIKW 192215Z AUTO 15011KT 10SM BKN070 28/14 A2997 RMK AO2 T02810136
KIKW 192155Z AUTO 21005KT 7SM BKN070 28/14 A2997 RMK AO2 T02800137
KIKW 192135Z AUTO 19005KT 10SM BKN060 28/14 A2997 RMK AO2 T02770141
KIKW 192115Z AUTO 16005KT 10SM BKN060 28/14 A2998 RMK AO2 T02820142
KIKW 192055Z AUTO 18007KT 10SM BKN060 27/14 A2998 RMK AO2 T02710138
KIKW 192035Z AUTO 19008KT 10SM SCT060 27/14 A2999 RMK AO2 T02740135
KIKW 192015Z AUTO 15009KT 10SM SCT060 27/14 A2999 RMK AO2 T02730138
KIKW 191955Z AUTO 20008KT 10SM BKN060 28/14 A2999 RMK AO2 T02810140
KIKW 191935Z AUTO 17006KT 10SM BKN060 28/14 A3000 RMK AO2 T02750139
KIKW 191915Z AUTO 17006KT 10SM SCT060 27/14 A3000 RMK AO2 T02730135
KIKW 191855Z AUTO 21007KT 10SM SCT060 28/14 A3000 RMK AO2 T02780141
KIKW 191835Z AUTO 21007G15KT 170V230 10SM SCT050 28/14 A3000 RMK AO2 T02760140
KIKW 191815Z AUTO 19008G14KT 7SM SCT050 28/14 A3001 RMK AO2 T02760141
KIKW 191755Z AUTO 21006KT 10SM SCT050 27/14 A3002 RMK AO2 T02710138 10271 20145
KIKW 191735Z AUTO 19004G15KT 10SM SCT050 27/14 A3002 RMK AO2 T02690140
KIKW 191715Z AUTO 14008KT 10SM SCT050 27/14 A3003 RMK AO2 T02660140
KIKW 191655Z AUTO 21009KT 10SM CLR 27/14 A3003 RMK AO2 T02650136
KIKW 191635Z AUTO 18007KT 7SM CLR 26/13 A3004 RMK AO2 T02610134
KIKW 191615Z AUTO 20007KT 10SM CLR 26/14 A3004 RMK AO2 T02600144
KIKW 191555Z AUTO 14008KT 10SM CLR 25/15 A3005 RMK AO2 T02510146
KIKW 191535Z AUTO 00000KT 10SM CLR 25/15 A3005 RMK AO2 T02450147
KIKW 191515Z AUTO 15005KT 10SM CLR 24/15 A3005 RMK AO2 T02420153
KIKW 191455Z AUTO 19003KT 10SM CLR 24/15 A3006 RMK AO2 T02360153
KIKW 191435Z AUTO 23003KT 10SM CLR 23/15 A3006 RMK AO2 T02310153
KIKW 191415Z AUTO 00000KT 10SM CLR 23/15 A3006 RMK AO2 T02260152
KIKW 191355Z AUTO 00000KT 10SM CLR 22/15 A3006 RMK AO2 T02170150
KIKW 191335Z AUTO 00000KT 10SM CLR 21/15 A3007 RMK AO2 T02080151
KIKW 191315Z AUTO 00000KT 10SM CLR 20/15 A3007 RMK AO2 T01960146
KIKW 191255Z AUTO 20003KT 10SM CLR 19/15 A3007 RMK AO2 T01880146
KIKW 191235Z AUTO 20004KT 10SM CLR 18/14 A3007 RMK AO2 T01770141
KIKW 191215Z AUTO 19004KT 10SM CLR 17/14 A3007 RMK AO2 T01710141
KIKW 191155Z AUTO 00000KT 10SM CLR 14/13 A3007 RMK AO2 T01420134 10142 20089
KIKW 191135Z AUTO 00000KT 10SM CLR 12/12 A3007 RMK AO2 T01240124
KIKW 191115Z AUTO 00000KT 10SM CLR 11/11 A3007 RMK AO2 T01060106
KIKW 191055Z AUTO 00000KT 10SM CLR 10/10 A3007 RMK AO2 T00990099
KIKW 191035Z AUTO 00000KT 10SM CLR 10/10 A3007 RMK AO2 T00950095
KIKW 191015Z AUTO 00000KT 7SM CLR 09/09 A3007 RMK AO2 T00890089
KIKW 190955Z AUTO 00000KT 10SM CLR 10/10 A3007 RMK AO2 T00950095
KIKW 190935Z AUTO 00000KT 3SM BR CLR 10/10 A3007 RMK AO2 T00990099
KIKW 190915Z AUTO 00000KT 10SM CLR 10/10 A3007 RMK AO2 T01010101
KIKW 190855Z AUTO 00000KT 10SM CLR 11/11 A3006 RMK AO2 T01050105
KIKW 190835Z AUTO 00000KT 10SM CLR 11/11 A3006 RMK AO2 T01060106
KIKW 190815Z AUTO 00000KT 10SM CLR 11/11 A3006 RMK AO2 T01050105
KIKW 190755Z AUTO 00000KT 10SM CLR 11/11 A3007 RMK AO2 T01080108
KIKW 190735Z AUTO 00000KT 10SM CLR 12/12 A3006 RMK AO2 T01160116
KIKW 190715Z AUTO 00000KT 10SM CLR 12/12 A3006 RMK AO2 T01150115
KIKW 190655Z AUTO 31003KT 10SM CLR 12/12 A3006 RMK AO2 T01160115
KIKW 190635Z AUTO 00000KT 10SM CLR 12/11 A3005 RMK AO2 T01200113
KIKW 190615Z AUTO 00000KT 10SM CLR 13/11 A3006 RMK AO2 T01250114
KIKW 190555Z AUTO 00000KT 10SM CLR 14/12 A3006 RMK AO2 T01440117 10242 20122 402490095
KIKW 190535Z AUTO 00000KT 10SM CLR 14/12 A3006 RMK AO2 T01430120
KIKW 190515Z AUTO 00000KT 10SM CLR 13/12 A3006 RMK AO2 T01290115
KIKW 190455Z AUTO 00000KT 10SM CLR 13/12 A3006 RMK AO2 T01340123
KIKW 190435Z AUTO 32003KT 10SM CLR 14/13 A3006 RMK AO2 T01380126
KIKW 190415Z AUTO 08005KT 10SM CLR 13/12 A3005 RMK AO2 T01290117
KIKW 190355Z AUTO 00000KT 10SM CLR 13/12 A3005 RMK AO2 T01330122
KIKW 190335Z AUTO 00000KT 10SM CLR 14/13 A3005 RMK AO2 T01400125
KIKW 190315Z AUTO 00000KT 10SM CLR 14/13 A3005 RMK AO2 T01390129
KIKW 190255Z AUTO 00000KT 10SM CLR 14/13 A3005 RMK AO2 T01420128
KIKW 190235Z AUTO 00000KT 10SM CLR 15/13 A3005 RMK AO2 T01460128
KIKW 190215Z AUTO 00000KT 10SM CLR 16/14 A3005 RMK AO2 T01550135
KIKW 190155Z AUTO 00000KT 10SM CLR 16/13 A3004 RMK AO2 T01560134
KIKW 190135Z AUTO 00000KT 10SM CLR 17/14 A3004 RMK AO2 T01670142
KIKW 190115Z AUTO 00000KT 10SM CLR 18/15 A3004 RMK AO2 T01790148
KIKW 190055Z AUTO 00000KT 10SM CLR 19/14 A3004 RMK AO2 T01930140
KIKW 190035Z AUTO 00000KT 10SM CLR 20/14 A3004 RMK AO2 T02030139
KIKW 190015Z AUTO 00000KT 10SM CLR 24/11 A3004 RMK AO2 T02350111
KIKW 182355Z AUTO 00000KT 10SM CLR 24/11 A3005 RMK AO2 T02420111 10249 20232
KIKW 182335Z AUTO 00000KT 10SM CLR 24/11 A3005 RMK AO2 T02430111
KIKW 182315Z AUTO 00000KT 10SM CLR 24/11 A3005 RMK AO2 T02440105
KIKW 182255Z AUTO 24006KT 10SM CLR 24/11 A3005 RMK AO2 T02420106
KIKW 182235Z AUTO 24005KT 10SM CLR 25/11 A3006 RMK AO2 T02460108
KIKW 182215Z AUTO 21003KT 10SM CLR 25/11 A3006 RMK AO2 T02480108
KIKW 182155Z AUTO 33003KT 10SM CLR 24/11 A3006 RMK AO2 T02440107
KIKW 182135Z AUTO 24005KT 10SM CLR 25/11 A3006 RMK AO2 T02460112
KIKW 182115Z AUTO 31003KT 10SM CLR 25/11 A3007 RMK AO2 T02450109
KIKW 182055Z AUTO 24007KT 7SM CLR 25/11 A3007 RMK AO2 T02480111
KIKW 182035Z AUTO 00000KT 10SM SCT055 24/11 A3007 RMK AO2 T02430108
KIKW 182015Z AUTO 00000KT 10SM CLR 24/11 A3008 RMK AO2 T02440112
KIKW 181955Z AUTO 26005KT 10SM CLR 25/11 A3009 RMK AO2 T02460113
KIKW 181935Z AUTO 23005KT 10SM CLR 24/11 A3009 RMK AO2 T02410111
KIKW 181915Z AUTO 00000KT 10SM CLR 23/10 A3009 RMK AO2 T02330103
KIKW 181855Z AUTO 22004KT 10SM CLR 23/11 A3009 RMK AO2 T02330109
KIKW 181835Z AUTO 30004KT 10SM SCT050 24/11 A3010 RMK AO2 T02410113
KIKW 181815Z AUTO 26005KT 10SM SCT049 24/11 A3011 RMK AO2 T02380110
KIKW 181755Z AUTO 32003KT 10SM SCT049 23/11 A3010 RMK AO2 T02280112 10232 20135
KIKW 181735Z AUTO 27004KT 10SM CLR 23/12 A3011 RMK AO2 T02280117
KIKW 181715Z AUTO 00000KT 10SM SCT045 22/12 A3012 RMK AO2 T02220121
KIKW 181655Z AUTO 27003KT 10SM CLR 23/11 A3012 RMK AO2 T02260112
KIKW 181635Z AUTO 35005KT 10SM SCT044 22/13 A3012 RMK AO2 T02200125
KIKW 181616Z AUTO 36003KT 10SM SCT034 SCT041 SCT047 20/12 A3013 RMK AO2 T02030123
KIKW 181555Z AUTO 29006KT 10SM SCT033 SCT042 22/14 A3013 RMK AO2 T02230136
KIKW 181535Z AUTO 00000KT 10SM SCT033 BKN040 20/13 A3014 RMK AO2 T02030128